sensor_id;sensor_type;location;lat;lon;timestamp;P1;durP1;ratioP1;P2;durP2;ratioP2
16189;SDS011;41754;51.498;7.540;2023-02-16T00:01:21;24.03;;;19.77;;
16189;SDS011;41754;51.498;7.540;2023-02-16T00:03:52;27.27;;;20.67;;
16189;SDS011;41754;51.498;7.540;2023-02-16T00:06:22;24.33;;;19.63;;
16189;SDS011;41754;51.498;7.540;2023-02-16T00:08:51;24.20;;;20.03;;
16189;SDS011;41754;51.498;7.540;2023-02-16T00:11:20;24.97;;;19.50;;
16189;SDS011;41754;51.498;7.540;2023-02-16T00:14:10;25.83;;;19.97;;
16189;SDS011;41754;51.498;7.540;2023-02-16T00:16:39;25.80;;;19.87;;
16189;SDS011;41754;51.498;7.540;2023-02-16T00:19:17;25.40;;;19.93;;
16189;SDS011;41754;51.498;7.540;2023-02-16T00:21:49;24.83;;;20.23;;
16189;SDS011;41754;51.498;7.540;2023-02-16T00:24:18;25.33;;;20.30;;
16189;SDS011;41754;51.498;7.540;2023-02-16T00:26:47;26.17;;;19.87;;
16189;SDS011;41754;51.498;7.540;2023-02-16T00:29:18;28.50;;;20.27;;
16189;SDS011;41754;51.498;7.540;2023-02-16T00:31:47;23.97;;;19.63;;
16189;SDS011;41754;51.498;7.540;2023-02-16T00:37:04;25.00;;;20.03;;
16189;SDS011;41754;51.498;7.540;2023-02-16T00:39:33;24.00;;;19.73;;
16189;SDS011;41754;51.498;7.540;2023-02-16T00:42:02;26.47;;;19.83;;
16189;SDS011;41754;51.498;7.540;2023-02-16T00:44:33;26.20;;;20.33;;
16189;SDS011;41754;51.498;7.540;2023-02-16T00:47:09;27.10;;;21.03;;
16189;SDS011;41754;51.498;7.540;2023-02-16T00:49:44;26.53;;;20.23;;
16189;SDS011;41754;51.498;7.540;2023-02-16T00:55:01;26.13;;;20.13;;
16189;SDS011;41754;51.498;7.540;2023-02-16T00:57:31;26.70;;;20.77;;
16189;SDS011;41754;51.498;7.540;2023-02-16T01:00:03;29.37;;;21.03;;
16189;SDS011;41754;51.498;7.540;2023-02-16T01:02:39;25.83;;;20.77;;
16189;SDS011;41754;51.498;7.540;2023-02-16T01:05:10;28.37;;;20.77;;
16189;SDS011;41754;51.498;7.540;2023-02-16T01:07:40;27.37;;;20.50;;
16189;SDS011;41754;51.498;7.540;2023-02-16T01:10:25;27.50;;;21.73;;
16189;SDS011;41754;51.498;7.540;2023-02-16T01:13:13;29.80;;;21.87;;
16189;SDS011;41754;51.498;7.540;2023-02-16T01:15:42;28.67;;;22.10;;
16189;SDS011;41754;51.498;7.540;2023-02-16T01:18:11;25.70;;;20.90;;
16189;SDS011;41754;51.498;7.540;2023-02-16T01:20:41;28.30;;;20.73;;
16189;SDS011;41754;51.498;7.540;2023-02-16T01:23:11;27.03;;;20.77;;
16189;SDS011;41754;51.498;7.540;2023-02-16T01:25:39;27.77;;;21.50;;
16189;SDS011;41754;51.498;7.540;2023-02-16T01:28:12;27.10;;;22.27;;
16189;SDS011;41754;51.498;7.540;2023-02-16T01:30:45;27.67;;;20.67;;
16189;SDS011;41754;51.498;7.540;2023-02-16T01:33:13;29.90;;;21.67;;
16189;SDS011;41754;51.498;7.540;2023-02-16T01:35:41;28.17;;;21.80;;
16189;SDS011;41754;51.498;7.540;2023-02-16T01:38:12;25.60;;;21.03;;
16189;SDS011;41754;51.498;7.540;2023-02-16T01:40:48;30.73;;;21.57;;
16189;SDS011;41754;51.498;7.540;2023-02-16T01:43:23;26.20;;;20.40;;
16189;SDS011;41754;51.498;7.540;2023-02-16T01:45:57;25.87;;;20.83;;
16189;SDS011;41754;51.498;7.540;2023-02-16T01:48:30;25.43;;;20.37;;
16189;SDS011;41754;51.498;7.540;2023-02-16T01:51:01;24.47;;;20.60;;
16189;SDS011;41754;51.498;7.540;2023-02-16T01:53:36;24.77;;;20.60;;
16189;SDS011;41754;51.498;7.540;2023-02-16T01:56:10;27.30;;;21.03;;
16189;SDS011;41754;51.498;7.540;2023-02-16T01:58:46;28.37;;;22.07;;
16189;SDS011;41754;51.498;7.540;2023-02-16T02:01:31;27.77;;;21.37;;
16189;SDS011;41754;51.498;7.540;2023-02-16T02:07:15;26.00;;;20.33;;
16189;SDS011;41754;51.498;7.540;2023-02-16T02:09:51;28.00;;;21.03;;
16189;SDS011;41754;51.498;7.540;2023-02-16T02:12:26;27.73;;;20.67;;
16189;SDS011;41754;51.498;7.540;2023-02-16T02:14:59;28.87;;;21.60;;
16189;SDS011;41754;51.498;7.540;2023-02-16T02:17:27;32.37;;;24.57;;
16189;SDS011;41754;51.498;7.540;2023-02-16T02:19:58;26.57;;;21.07;;
16189;SDS011;41754;51.498;7.540;2023-02-16T02:26:07;26.97;;;22.00;;
16189;SDS011;41754;51.498;7.540;2023-02-16T02:29:06;28.87;;;21.10;;
16189;SDS011;41754;51.498;7.540;2023-02-16T02:31:48;27.47;;;20.90;;
16189;SDS011;41754;51.498;7.540;2023-02-16T02:34:35;25.77;;;21.30;;
16189;SDS011;41754;51.498;7.540;2023-02-16T02:37:17;27.87;;;21.37;;
16189;SDS011;41754;51.498;7.540;2023-02-16T02:39:54;28.87;;;21.50;;
16189;SDS011;41754;51.498;7.540;2023-02-16T02:42:35;27.03;;;21.00;;
16189;SDS011;41754;51.498;7.540;2023-02-16T02:45:11;27.23;;;21.53;;
16189;SDS011;41754;51.498;7.540;2023-02-16T02:47:43;26.00;;;20.57;;
16189;SDS011;41754;51.498;7.540;2023-02-16T02:50:28;27.73;;;20.57;;
16189;SDS011;41754;51.498;7.540;2023-02-16T02:53:07;25.60;;;20.67;;
16189;SDS011;41754;51.498;7.540;2023-02-16T02:55:39;28.90;;;21.53;;
16189;SDS011;41754;51.498;7.540;2023-02-16T02:58:31;27.43;;;20.83;;
16189;SDS011;41754;51.498;7.540;2023-02-16T03:01:32;28.40;;;22.07;;
16189;SDS011;41754;51.498;7.540;2023-02-16T03:04:02;26.20;;;20.40;;
16189;SDS011;41754;51.498;7.540;2023-02-16T03:06:35;25.60;;;20.50;;
16189;SDS011;41754;51.498;7.540;2023-02-16T03:09:08;28.20;;;20.80;;
16189;SDS011;41754;51.498;7.540;2023-02-16T03:11:39;25.57;;;20.90;;
16189;SDS011;41754;51.498;7.540;2023-02-16T03:14:27;27.90;;;21.37;;
16189;SDS011;41754;51.498;7.540;2023-02-16T03:16:59;30.37;;;21.37;;
16189;SDS011;41754;51.498;7.540;2023-02-16T03:19:50;27.13;;;22.23;;
16189;SDS011;41754;51.498;7.540;2023-02-16T03:22:36;28.40;;;21.57;;
16189;SDS011;41754;51.498;7.540;2023-02-16T03:25:25;28.57;;;22.57;;
16189;SDS011;41754;51.498;7.540;2023-02-16T03:28:15;24.83;;;19.80;;
16189;SDS011;41754;51.498;7.540;2023-02-16T03:31:05;27.13;;;21.47;;
16189;SDS011;41754;51.498;7.540;2023-02-16T03:33:37;27.80;;;20.90;;
16189;SDS011;41754;51.498;7.540;2023-02-16T03:36:06;26.77;;;21.60;;
16189;SDS011;41754;51.498;7.540;2023-02-16T03:38:34;26.23;;;21.23;;
16189;SDS011;41754;51.498;7.540;2023-02-16T03:41:03;28.03;;;21.33;;
16189;SDS011;41754;51.498;7.540;2023-02-16T03:43:31;26.60;;;20.67;;
16189;SDS011;41754;51.498;7.540;2023-02-16T03:45:59;25.67;;;19.83;;
16189;SDS011;41754;51.498;7.540;2023-02-16T03:48:29;28.40;;;21.03;;
16189;SDS011;41754;51.498;7.540;2023-02-16T03:50:56;27.20;;;20.90;;
16189;SDS011;41754;51.498;7.540;2023-02-16T03:53:24;28.90;;;21.50;;
16189;SDS011;41754;51.498;7.540;2023-02-16T03:55:52;25.33;;;20.53;;
16189;SDS011;41754;51.498;7.540;2023-02-16T03:58:21;29.77;;;20.63;;
16189;SDS011;41754;51.498;7.540;2023-02-16T04:00:50;26.43;;;20.70;;
16189;SDS011;41754;51.498;7.540;2023-02-16T04:03:18;30.53;;;21.40;;
16189;SDS011;41754;51.498;7.540;2023-02-16T04:05:48;26.47;;;20.90;;
16189;SDS011;41754;51.498;7.540;2023-02-16T04:08:16;30.17;;;21.67;;
16189;SDS011;41754;51.498;7.540;2023-02-16T04:10:44;27.60;;;21.23;;
16189;SDS011;41754;51.498;7.540;2023-02-16T04:13:12;26.13;;;21.03;;
16189;SDS011;41754;51.498;7.540;2023-02-16T04:15:39;27.03;;;21.17;;
16189;SDS011;41754;51.498;7.540;2023-02-16T04:18:07;29.20;;;21.53;;
16189;SDS011;41754;51.498;7.540;2023-02-16T04:20:35;27.07;;;21.00;;
16189;SDS011;41754;51.498;7.540;2023-02-16T04:23:04;27.07;;;20.90;;
16189;SDS011;41754;51.498;7.540;2023-02-16T04:25:32;27.47;;;21.73;;
16189;SDS011;41754;51.498;7.540;2023-02-16T04:28:00;28.43;;;21.13;;
16189;SDS011;41754;51.498;7.540;2023-02-16T04:30:29;26.53;;;21.80;;
16189;SDS011;41754;51.498;7.540;2023-02-16T04:32:57;26.13;;;21.27;;
16189;SDS011;41754;51.498;7.540;2023-02-16T04:35:25;27.20;;;21.23;;
16189;SDS011;41754;51.498;7.540;2023-02-16T04:37:53;26.23;;;20.33;;
16189;SDS011;41754;51.498;7.540;2023-02-16T04:40:23;26.87;;;20.53;;
16189;SDS011;41754;51.498;7.540;2023-02-16T04:42:50;25.80;;;20.60;;
16189;SDS011;41754;51.498;7.540;2023-02-16T04:45:18;30.13;;;22.07;;
16189;SDS011;41754;51.498;7.540;2023-02-16T04:47:46;27.93;;;21.57;;
16189;SDS011;41754;51.498;7.540;2023-02-16T04:50:19;28.77;;;21.53;;
16189;SDS011;41754;51.498;7.540;2023-02-16T04:52:55;25.33;;;20.23;;
16189;SDS011;41754;51.498;7.540;2023-02-16T04:55:24;29.23;;;21.17;;
16189;SDS011;41754;51.498;7.540;2023-02-16T04:57:52;28.20;;;21.97;;
16189;SDS011;41754;51.498;7.540;2023-02-16T05:00:19;26.47;;;20.07;;
16189;SDS011;41754;51.498;7.540;2023-02-16T05:02:47;29.60;;;21.60;;
16189;SDS011;41754;51.498;7.540;2023-02-16T05:05:15;30.17;;;22.70;;
16189;SDS011;41754;51.498;7.540;2023-02-16T05:07:43;25.73;;;21.03;;
16189;SDS011;41754;51.498;7.540;2023-02-16T05:10:11;28.93;;;21.30;;
16189;SDS011;41754;51.498;7.540;2023-02-16T05:12:40;29.60;;;22.00;;
16189;SDS011;41754;51.498;7.540;2023-02-16T05:15:26;27.00;;;20.30;;
16189;SDS011;41754;51.498;7.540;2023-02-16T05:17:54;27.63;;;21.13;;
16189;SDS011;41754;51.498;7.540;2023-02-16T05:20:22;27.63;;;21.37;;
16189;SDS011;41754;51.498;7.540;2023-02-16T05:23:10;28.10;;;21.43;;
16189;SDS011;41754;51.498;7.540;2023-02-16T05:25:38;28.77;;;21.03;;
16189;SDS011;41754;51.498;7.540;2023-02-16T05:28:07;27.97;;;20.00;;
16189;SDS011;41754;51.498;7.540;2023-02-16T05:30:35;27.33;;;20.90;;
16189;SDS011;41754;51.498;7.540;2023-02-16T05:33:03;26.00;;;20.20;;
16189;SDS011;41754;51.498;7.540;2023-02-16T05:35:31;24.93;;;20.43;;
16189;SDS011;41754;51.498;7.540;2023-02-16T05:38:00;28.40;;;20.57;;
16189;SDS011;41754;51.498;7.540;2023-02-16T05:40:27;29.40;;;21.63;;
16189;SDS011;41754;51.498;7.540;2023-02-16T05:42:55;28.77;;;22.30;;
16189;SDS011;41754;51.498;7.540;2023-02-16T05:45:24;28.33;;;21.33;;
16189;SDS011;41754;51.498;7.540;2023-02-16T05:47:52;28.83;;;22.20;;
16189;SDS011;41754;51.498;7.540;2023-02-16T05:50:20;25.37;;;20.93;;
16189;SDS011;41754;51.498;7.540;2023-02-16T05:52:48;28.50;;;21.93;;
16189;SDS011;41754;51.498;7.540;2023-02-16T05:55:15;29.60;;;22.10;;
16189;SDS011;41754;51.498;7.540;2023-02-16T05:57:44;29.63;;;21.87;;
16189;SDS011;41754;51.498;7.540;2023-02-16T06:00:12;28.33;;;22.57;;
16189;SDS011;41754;51.498;7.540;2023-02-16T06:02:42;27.20;;;21.97;;
16189;SDS011;41754;51.498;7.540;2023-02-16T06:05:10;27.30;;;21.23;;
16189;SDS011;41754;51.498;7.540;2023-02-16T06:07:37;28.97;;;21.67;;
16189;SDS011;41754;51.498;7.540;2023-02-16T06:10:06;28.17;;;22.80;;
16189;SDS011;41754;51.498;7.540;2023-02-16T06:12:35;29.20;;;23.13;;
16189;SDS011;41754;51.498;7.540;2023-02-16T06:15:03;30.27;;;23.63;;
16189;SDS011;41754;51.498;7.540;2023-02-16T06:17:31;31.10;;;22.80;;
16189;SDS011;41754;51.498;7.540;2023-02-16T06:20:00;31.50;;;23.07;;
16189;SDS011;41754;51.498;7.540;2023-02-16T06:22:28;30.33;;;23.43;;
16189;SDS011;41754;51.498;7.540;2023-02-16T06:24:56;30.23;;;22.60;;
16189;SDS011;41754;51.498;7.540;2023-02-16T06:27:24;29.93;;;23.27;;
16189;SDS011;41754;51.498;7.540;2023-02-16T06:29:54;29.67;;;22.00;;
16189;SDS011;41754;51.498;7.540;2023-02-16T06:32:21;27.73;;;22.40;;
16189;SDS011;41754;51.498;7.540;2023-02-16T06:34:50;28.97;;;22.00;;
16189;SDS011;41754;51.498;7.540;2023-02-16T06:37:19;28.40;;;21.63;;
16189;SDS011;41754;51.498;7.540;2023-02-16T06:39:47;27.57;;;22.50;;
16189;SDS011;41754;51.498;7.540;2023-02-16T06:42:15;32.43;;;22.40;;
16189;SDS011;41754;51.498;7.540;2023-02-16T06:44:43;30.83;;;23.00;;
16189;SDS011;41754;51.498;7.540;2023-02-16T06:47:11;30.67;;;23.43;;
16189;SDS011;41754;51.498;7.540;2023-02-16T06:49:39;27.97;;;21.93;;
16189;SDS011;41754;51.498;7.540;2023-02-16T06:52:06;28.97;;;23.23;;
16189;SDS011;41754;51.498;7.540;2023-02-16T06:54:35;29.27;;;21.80;;
16189;SDS011;41754;51.498;7.540;2023-02-16T06:57:03;29.87;;;22.07;;
16189;SDS011;41754;51.498;7.540;2023-02-16T06:59:31;27.87;;;21.77;;
16189;SDS011;41754;51.498;7.540;2023-02-16T07:01:59;29.60;;;21.87;;
16189;SDS011;41754;51.498;7.540;2023-02-16T07:04:27;26.87;;;20.97;;
16189;SDS011;41754;51.498;7.540;2023-02-16T07:06:55;28.23;;;19.87;;
16189;SDS011;41754;51.498;7.540;2023-02-16T07:09:23;27.77;;;20.90;;
16189;SDS011;41754;51.498;7.540;2023-02-16T07:11:52;29.20;;;21.00;;
16189;SDS011;41754;51.498;7.540;2023-02-16T07:14:20;29.30;;;21.00;;
16189;SDS011;41754;51.498;7.540;2023-02-16T07:16:48;27.93;;;20.67;;
16189;SDS011;41754;51.498;7.540;2023-02-16T07:19:16;28.90;;;21.17;;
16189;SDS011;41754;51.498;7.540;2023-02-16T07:21:44;27.40;;;20.23;;
16189;SDS011;41754;51.498;7.540;2023-02-16T07:24:12;28.70;;;20.47;;
16189;SDS011;41754;51.498;7.540;2023-02-16T07:26:40;28.33;;;19.97;;
16189;SDS011;41754;51.498;7.540;2023-02-16T07:29:09;27.83;;;19.57;;
16189;SDS011;41754;51.498;7.540;2023-02-16T07:31:37;28.33;;;19.97;;
16189;SDS011;41754;51.498;7.540;2023-02-16T07:34:05;25.50;;;18.17;;
16189;SDS011;41754;51.498;7.540;2023-02-16T07:36:33;27.93;;;19.43;;
16189;SDS011;41754;51.498;7.540;2023-02-16T07:39:01;28.80;;;19.77;;
16189;SDS011;41754;51.498;7.540;2023-02-16T07:41:29;28.30;;;18.43;;
16189;SDS011;41754;51.498;7.540;2023-02-16T07:44:05;26.17;;;19.57;;
16189;SDS011;41754;51.498;7.540;2023-02-16T07:49:04;28.40;;;19.83;;
16189;SDS011;41754;51.498;7.540;2023-02-16T07:51:32;26.67;;;18.63;;
16189;SDS011;41754;51.498;7.540;2023-02-16T07:54:00;30.17;;;18.73;;
16189;SDS011;41754;51.498;7.540;2023-02-16T07:56:29;27.60;;;19.67;;
16189;SDS011;41754;51.498;7.540;2023-02-16T07:58:59;28.50;;;19.50;;
16189;SDS011;41754;51.498;7.540;2023-02-16T08:01:28;26.23;;;19.80;;
16189;SDS011;41754;51.498;7.540;2023-02-16T08:03:57;27.63;;;19.13;;
16189;SDS011;41754;51.498;7.540;2023-02-16T08:06:25;25.60;;;17.87;;
16189;SDS011;41754;51.498;7.540;2023-02-16T08:08:53;26.67;;;18.87;;
16189;SDS011;41754;51.498;7.540;2023-02-16T08:11:22;26.97;;;19.10;;
16189;SDS011;41754;51.498;7.540;2023-02-16T08:13:51;24.97;;;18.70;;
16189;SDS011;41754;51.498;7.540;2023-02-16T08:16:19;25.33;;;18.20;;
16189;SDS011;41754;51.498;7.540;2023-02-16T08:18:49;28.20;;;18.83;;
16189;SDS011;41754;51.498;7.540;2023-02-16T08:21:19;27.10;;;19.80;;
16189;SDS011;41754;51.498;7.540;2023-02-16T08:23:51;23.70;;;18.90;;
16189;SDS011;41754;51.498;7.540;2023-02-16T08:26:20;25.87;;;17.80;;
16189;SDS011;41754;51.498;7.540;2023-02-16T08:28:49;22.03;;;16.53;;
16189;SDS011;41754;51.498;7.540;2023-02-16T08:31:18;28.37;;;17.57;;
16189;SDS011;41754;51.498;7.540;2023-02-16T08:33:48;24.47;;;17.43;;
16189;SDS011;41754;51.498;7.540;2023-02-16T08:36:19;25.40;;;18.17;;
16189;SDS011;41754;51.498;7.540;2023-02-16T08:38:48;23.40;;;17.33;;
16189;SDS011;41754;51.498;7.540;2023-02-16T08:41:17;25.20;;;18.43;;
16189;SDS011;41754;51.498;7.540;2023-02-16T08:43:46;29.97;;;18.83;;
16189;SDS011;41754;51.498;7.540;2023-02-16T08:46:14;22.60;;;17.40;;
16189;SDS011;41754;51.498;7.540;2023-02-16T08:48:43;22.50;;;18.23;;
16189;SDS011;41754;51.498;7.540;2023-02-16T08:51:13;26.47;;;18.93;;
16189;SDS011;41754;51.498;7.540;2023-02-16T08:53:44;23.90;;;16.73;;
16189;SDS011;41754;51.498;7.540;2023-02-16T08:56:13;24.23;;;17.40;;
16189;SDS011;41754;51.498;7.540;2023-02-16T08:58:42;25.43;;;17.87;;
16189;SDS011;41754;51.498;7.540;2023-02-16T09:01:10;25.17;;;17.23;;
16189;SDS011;41754;51.498;7.540;2023-02-16T09:03:41;25.70;;;18.13;;
16189;SDS011;41754;51.498;7.540;2023-02-16T09:06:11;22.87;;;17.20;;
16189;SDS011;41754;51.498;7.540;2023-02-16T09:08:40;26.43;;;17.27;;
16189;SDS011;41754;51.498;7.540;2023-02-16T09:11:11;23.37;;;17.50;;
16189;SDS011;41754;51.498;7.540;2023-02-16T09:13:40;25.40;;;19.03;;
16189;SDS011;41754;51.498;7.540;2023-02-16T09:16:10;25.30;;;17.40;;
16189;SDS011;41754;51.498;7.540;2023-02-16T09:18:41;22.10;;;17.40;;
16189;SDS011;41754;51.498;7.540;2023-02-16T09:21:11;25.03;;;18.33;;
16189;SDS011;41754;51.498;7.540;2023-02-16T09:23:41;28.00;;;18.17;;
16189;SDS011;41754;51.498;7.540;2023-02-16T09:26:14;22.17;;;17.20;;
16189;SDS011;41754;51.498;7.540;2023-02-16T09:28:43;24.90;;;18.13;;
16189;SDS011;41754;51.498;7.540;2023-02-16T09:31:11;26.20;;;17.93;;
16189;SDS011;41754;51.498;7.540;2023-02-16T09:33:41;26.60;;;18.80;;
16189;SDS011;41754;51.498;7.540;2023-02-16T09:36:11;27.97;;;18.17;;
16189;SDS011;41754;51.498;7.540;2023-02-16T09:38:39;25.47;;;17.40;;
16189;SDS011;41754;51.498;7.540;2023-02-16T09:44:05;21.77;;;16.63;;
16189;SDS011;41754;51.498;7.540;2023-02-16T09:46:43;24.43;;;17.43;;
16189;SDS011;41754;51.498;7.540;2023-02-16T09:49:16;23.80;;;16.47;;
16189;SDS011;41754;51.498;7.540;2023-02-16T09:51:54;20.07;;;15.70;;
16189;SDS011;41754;51.498;7.540;2023-02-16T09:54:31;19.17;;;15.70;;
16189;SDS011;41754;51.498;7.540;2023-02-16T09:57:10;23.70;;;15.37;;
16189;SDS011;41754;51.498;7.540;2023-02-16T09:59:46;21.08;;;16.13;;
16189;SDS011;41754;51.498;7.540;2023-02-16T10:02:31;18.05;;;15.00;;
16189;SDS011;41754;51.498;7.540;2023-02-16T10:07:54;17.67;;;14.60;;
16189;SDS011;41754;51.498;7.540;2023-02-16T10:10:28;19.95;;;14.98;;
16189;SDS011;41754;51.498;7.540;2023-02-16T10:13:03;18.73;;;14.93;;
16189;SDS011;41754;51.498;7.540;2023-02-16T10:15:39;17.58;;;13.60;;
16189;SDS011;41754;51.498;7.540;2023-02-16T10:18:15;17.30;;;13.68;;
16189;SDS011;41754;51.498;7.540;2023-02-16T10:20:47;18.40;;;13.95;;
16189;SDS011;41754;51.498;7.540;2023-02-16T10:23:36;18.25;;;15.10;;
16189;SDS011;41754;51.498;7.540;2023-02-16T10:26:15;20.63;;;15.50;;
16189;SDS011;41754;51.498;7.540;2023-02-16T10:28:49;17.85;;;14.05;;
16189;SDS011;41754;51.498;7.540;2023-02-16T10:31:21;16.52;;;12.70;;
16189;SDS011;41754;51.498;7.540;2023-02-16T10:33:54;17.05;;;13.85;;
16189;SDS011;41754;51.498;7.540;2023-02-16T10:36:33;17.17;;;14.25;;
16189;SDS011;41754;51.498;7.540;2023-02-16T10:39:17;14.95;;;12.52;;
16189;SDS011;41754;51.498;7.540;2023-02-16T10:41:53;16.17;;;13.93;;
16189;SDS011;41754;51.498;7.540;2023-02-16T10:44:32;16.73;;;13.40;;
16189;SDS011;41754;51.498;7.540;2023-02-16T10:47:05;16.98;;;13.85;;
16189;SDS011;41754;51.498;7.540;2023-02-16T10:49:39;15.70;;;13.98;;
16189;SDS011;41754;51.498;7.540;2023-02-16T10:52:07;17.67;;;14.52;;
16189;SDS011;41754;51.498;7.540;2023-02-16T10:54:36;19.35;;;14.55;;
16189;SDS011;41754;51.498;7.540;2023-02-16T10:57:05;16.65;;;13.52;;
16189;SDS011;41754;51.498;7.540;2023-02-16T10:59:41;16.03;;;13.03;;
16189;SDS011;41754;51.498;7.540;2023-02-16T11:02:16;18.53;;;14.60;;
16189;SDS011;41754;51.498;7.540;2023-02-16T11:04:46;20.97;;;15.83;;
16189;SDS011;41754;51.498;7.540;2023-02-16T11:07:18;17.23;;;12.73;;
16189;SDS011;41754;51.498;7.540;2023-02-16T11:09:47;18.35;;;14.82;;
16189;SDS011;41754;51.498;7.540;2023-02-16T11:12:22;18.30;;;15.13;;
16189;SDS011;41754;51.498;7.540;2023-02-16T11:14:57;19.20;;;15.63;;
16189;SDS011;41754;51.498;7.540;2023-02-16T11:17:29;20.40;;;16.10;;
16189;SDS011;41754;51.498;7.540;2023-02-16T11:19:59;19.15;;;15.93;;
16189;SDS011;41754;51.498;7.540;2023-02-16T11:22:32;20.55;;;15.75;;
16189;SDS011;41754;51.498;7.540;2023-02-16T11:25:21;19.60;;;15.68;;
16189;SDS011;41754;51.498;7.540;2023-02-16T11:27:53;22.25;;;16.58;;
16189;SDS011;41754;51.498;7.540;2023-02-16T11:33:00;19.63;;;16.20;;
16189;SDS011;41754;51.498;7.540;2023-02-16T11:35:30;21.83;;;16.67;;
16189;SDS011;41754;51.498;7.540;2023-02-16T11:38:21;20.25;;;17.42;;
16189;SDS011;41754;51.498;7.540;2023-02-16T11:40:52;21.60;;;17.50;;
16189;SDS011;41754;51.498;7.540;2023-02-16T11:43:21;22.58;;;18.20;;
16189;SDS011;41754;51.498;7.540;2023-02-16T11:45:59;22.60;;;17.75;;
16189;SDS011;41754;51.498;7.540;2023-02-16T11:48:30;22.80;;;17.20;;
16189;SDS011;41754;51.498;7.540;2023-02-16T11:51:00;21.17;;;17.33;;
16189;SDS011;41754;51.498;7.540;2023-02-16T11:53:34;19.52;;;16.67;;
16189;SDS011;41754;51.498;7.540;2023-02-16T11:56:08;19.10;;;17.05;;
16189;SDS011;41754;51.498;7.540;2023-02-16T11:58:45;20.95;;;17.17;;
16189;SDS011;41754;51.498;7.540;2023-02-16T12:01:33;18.90;;;16.75;;
16189;SDS011;41754;51.498;7.540;2023-02-16T12:04:16;24.17;;;18.45;;
16189;SDS011;41754;51.498;7.540;2023-02-16T12:06:57;21.98;;;17.10;;
16189;SDS011;41754;51.498;7.540;2023-02-16T12:09:43;20.08;;;16.92;;
16189;SDS011;41754;51.498;7.540;2023-02-16T12:12:24;23.10;;;18.25;;
16189;SDS011;41754;51.498;7.540;2023-02-16T12:15:01;22.67;;;18.67;;
16189;SDS011;41754;51.498;7.540;2023-02-16T12:17:40;19.33;;;16.42;;
16189;SDS011;41754;51.498;7.540;2023-02-16T12:20:20;23.38;;;18.05;;
16189;SDS011;41754;51.498;7.540;2023-02-16T12:22:58;22.77;;;18.85;;
16189;SDS011;41754;51.498;7.540;2023-02-16T12:25:38;21.45;;;17.58;;
16189;SDS011;41754;51.498;7.540;2023-02-16T12:28:13;21.13;;;17.65;;
16189;SDS011;41754;51.498;7.540;2023-02-16T12:30:53;23.10;;;18.55;;
16189;SDS011;41754;51.498;7.540;2023-02-16T12:33:33;22.67;;;18.80;;
16189;SDS011;41754;51.498;7.540;2023-02-16T12:36:18;27.15;;;18.42;;
16189;SDS011;41754;51.498;7.540;2023-02-16T12:39:04;25.33;;;19.30;;
16189;SDS011;41754;51.498;7.540;2023-02-16T12:41:54;23.63;;;18.88;;
16189;SDS011;41754;51.498;7.540;2023-02-16T12:44:41;20.95;;;18.55;;
16189;SDS011;41754;51.498;7.540;2023-02-16T12:47:15;21.88;;;18.77;;
16189;SDS011;41754;51.498;7.540;2023-02-16T12:49:50;23.42;;;19.27;;
16189;SDS011;41754;51.498;7.540;2023-02-16T12:52:24;22.60;;;19.48;;
16189;SDS011;41754;51.498;7.540;2023-02-16T12:54:58;22.40;;;19.60;;
16189;SDS011;41754;51.498;7.540;2023-02-16T12:57:37;23.80;;;19.90;;
16189;SDS011;41754;51.498;7.540;2023-02-16T13:00:13;21.65;;;19.25;;
16189;SDS011;41754;51.498;7.540;2023-02-16T13:02:48;24.65;;;21.35;;
16189;SDS011;41754;51.498;7.540;2023-02-16T13:05:22;25.55;;;20.48;;
16189;SDS011;41754;51.498;7.540;2023-02-16T13:07:55;22.33;;;19.35;;
16189;SDS011;41754;51.498;7.540;2023-02-16T13:10:32;24.85;;;19.83;;
16189;SDS011;41754;51.498;7.540;2023-02-16T13:13:05;22.65;;;19.55;;
16189;SDS011;41754;51.498;7.540;2023-02-16T13:18:11;27.30;;;21.73;;
16189;SDS011;41754;51.498;7.540;2023-02-16T13:20:48;21.05;;;18.75;;
16189;SDS011;41754;51.498;7.540;2023-02-16T13:23:26;24.77;;;21.08;;
16189;SDS011;41754;51.498;7.540;2023-02-16T13:26:06;25.20;;;20.20;;
16189;SDS011;41754;51.498;7.540;2023-02-16T13:28:56;26.95;;;20.23;;
16189;SDS011;41754;51.498;7.540;2023-02-16T13:31:42;23.15;;;19.40;;
16189;SDS011;41754;51.498;7.540;2023-02-16T13:34:31;23.40;;;19.77;;
16189;SDS011;41754;51.498;7.540;2023-02-16T13:37:24;24.63;;;20.30;;
16189;SDS011;41754;51.498;7.540;2023-02-16T13:40:14;23.30;;;19.60;;
16189;SDS011;41754;51.498;7.540;2023-02-16T13:42:58;22.25;;;18.98;;
16189;SDS011;41754;51.498;7.540;2023-02-16T13:45:36;22.50;;;19.50;;
16189;SDS011;41754;51.498;7.540;2023-02-16T13:48:12;20.80;;;18.20;;
16189;SDS011;41754;51.498;7.540;2023-02-16T13:50:42;20.58;;;18.17;;
16189;SDS011;41754;51.498;7.540;2023-02-16T13:53:17;23.13;;;19.23;;
16189;SDS011;41754;51.498;7.540;2023-02-16T13:55:47;22.83;;;18.50;;
16189;SDS011;41754;51.498;7.540;2023-02-16T13:58:25;21.35;;;19.05;;
16189;SDS011;41754;51.498;7.540;2023-02-16T14:00:56;22.80;;;18.58;;
16189;SDS011;41754;51.498;7.540;2023-02-16T14:03:36;23.10;;;20.20;;
16189;SDS011;41754;51.498;7.540;2023-02-16T14:12:16;21.00;;;18.73;;
16189;SDS011;41754;51.498;7.540;2023-02-16T14:14:57;22.35;;;18.20;;
16189;SDS011;41754;51.498;7.540;2023-02-16T14:17:30;27.50;;;19.85;;
16189;SDS011;41754;51.498;7.540;2023-02-16T14:20:02;21.65;;;18.33;;
16189;SDS011;41754;51.498;7.540;2023-02-16T14:22:33;23.80;;;19.02;;
16189;SDS011;41754;51.498;7.540;2023-02-16T14:28:12;22.00;;;18.33;;
16189;SDS011;41754;51.498;7.540;2023-02-16T14:31:23;23.20;;;19.10;;
16189;SDS011;41754;51.498;7.540;2023-02-16T14:33:59;22.58;;;18.83;;
16189;SDS011;41754;51.498;7.540;2023-02-16T14:36:30;23.13;;;18.83;;
16189;SDS011;41754;51.498;7.540;2023-02-16T14:38:58;21.75;;;19.25;;
16189;SDS011;41754;51.498;7.540;2023-02-16T14:41:28;22.50;;;18.95;;
16189;SDS011;41754;51.498;7.540;2023-02-16T14:44:11;26.95;;;20.45;;
16189;SDS011;41754;51.498;7.540;2023-02-16T14:46:58;23.17;;;19.30;;
16189;SDS011;41754;51.498;7.540;2023-02-16T14:49:51;21.45;;;18.17;;
16189;SDS011;41754;51.498;7.540;2023-02-16T14:52:41;23.17;;;18.60;;
16189;SDS011;41754;51.498;7.540;2023-02-16T14:55:21;21.25;;;17.92;;
16189;SDS011;41754;51.498;7.540;2023-02-16T14:58:02;20.17;;;17.67;;
16189;SDS011;41754;51.498;7.540;2023-02-16T15:00:45;20.85;;;17.95;;
16189;SDS011;41754;51.498;7.540;2023-02-16T15:03:18;25.77;;;19.55;;
16189;SDS011;41754;51.498;7.540;2023-02-16T15:05:49;24.45;;;18.63;;
16189;SDS011;41754;51.498;7.540;2023-02-16T15:08:24;23.17;;;18.92;;
16189;SDS011;41754;51.498;7.540;2023-02-16T15:11:00;23.85;;;19.00;;
16189;SDS011;41754;51.498;7.540;2023-02-16T15:13:39;24.27;;;18.90;;
16189;SDS011;41754;51.498;7.540;2023-02-16T15:16:09;24.48;;;18.48;;
16189;SDS011;41754;51.498;7.540;2023-02-16T15:18:41;21.52;;;17.92;;
16189;SDS011;41754;51.498;7.540;2023-02-16T15:21:15;24.20;;;19.55;;
16189;SDS011;41754;51.498;7.540;2023-02-16T15:23:49;24.52;;;18.45;;
16189;SDS011;41754;51.498;7.540;2023-02-16T15:26:19;23.05;;;17.73;;
16189;SDS011;41754;51.498;7.540;2023-02-16T15:28:51;21.92;;;17.88;;
16189;SDS011;41754;51.498;7.540;2023-02-16T15:31:23;22.02;;;17.55;;